Time;durP1;ratioP1;P1;durP2;ratioP2;P2;SDS_P1;SDS_P2;PMS_P1;PMS_P2;Temp;Humidity;BMP_temperature;BMP_pressure;BME280_temperature;BME280_humidity;BME280_pressure;Samples;Min_cycle;Max_cycle;Signal;HPM_P1;HPM_P2
2023/07/17 00:01:04;;;;;;;;;;;;;;;;;;2203225;59;2186;-26
2023/07/17 00:03:34;;;;;;;;;;;;;;;;;;2204113;58;2529;-26
2023/07/17 00:06:05;;;;;;;;;;;;;;;;;;2202226;60;2577;-27
2023/07/17 00:08:35;;;;;;;;;;;;;;;;;;2197019;67;2380;-27
2023/07/17 00:11:05;;;;;;;;;;;;;;;;;;2202031;66;2620;-27
2023/07/17 00:13:35;;;;;;;;;;;;;;;;;;2201555;59;2012;-27
2023/07/17 00:16:05;;;;;;;;;;;;;;;;;;2202644;66;2549;-28
2023/07/17 00:18:36;;;;;;;;;;;;;;;;;;2203238;67;1982;-27
2023/07/17 00:21:10;;;;;;;;;;;;;;;;;;2197431;67;2135;-28
2023/07/17 00:23:40;;;;;;;;;;;;;;;;;;2203043;67;2113;-27
2023/07/17 00:26:11;;;;;;;;;;;;;;;;;;2202951;67;2768;-27
2023/07/17 00:28:41;;;;;;;;;;;;;;;;;;2203197;66;2646;-28
2023/07/17 00:31:11;;;;;;;;;;;;;;;;;;2200626;66;2051;-27
2023/07/17 00:33:41;;;;;;;;;;;;;;;;;;2202798;67;2013;-27
2023/07/17 00:36:11;;;;;;;;;;;;;;;;;;2202347;67;2690;-28
2023/07/17 00:38:42;;;;;;;;;;;;;;;;;;2203295;66;2619;-28
2023/07/17 00:41:12;;;;;;;;;;;;;;;;;;2203087;67;1984;-27
2023/07/17 00:43:42;;;;;;;;;;;;;;;;;;2202822;67;2554;-27
2023/07/17 00:46:13;;;;;;;;;;;;;;;;;;2202695;66;2077;-27
2023/07/17 00:48:43;;;;;;;;;;;;;;;;;;2203316;66;2482;-27
2023/07/17 00:51:14;;;;;;;;;;;;;;;;;;2201739;59;2528;-26
2023/07/17 00:53:44;;;;;;;;;;;;;;;;;;2202902;59;2081;-27
2023/07/17 00:56:14;;;;;;;;;;;;;;;;;;2202773;59;2020;-27
2023/07/17 00:58:45;;;;;;;;;;;;;;;;;;2202476;67;2438;-27
2023/07/17 01:01:16;;;;;;;;;;;;;;;;;;2199508;59;2074;-27
2023/07/17 01:03:46;;;;;;;;;;;;;;;;;;2198384;58;2107;-27
2023/07/17 01:06:16;;;;;;;;;;;;;;;;;;2202108;66;2078;-28
2023/07/17 01:08:47;;;;;;;;;;;;;;;;;;2202700;66;2099;-27
2023/07/17 01:11:17;;;;;;;;;;;;;;;;;;2202459;59;2726;-27
2023/07/17 01:13:48;;;;;;;;;;;;;;;;;;2203627;67;2122;-27
2023/07/17 01:16:18;;;;;;;;;;;;;;;;;;2201986;67;2139;-27
2023/07/17 01:18:49;;;;;;;;;;;;;;;;;;2199757;66;2050;-27
2023/07/17 01:21:27;;;;;;;;;;;;;;;;;;2200155;66;2510;-27
2023/07/17 01:23:57;;;;;;;;;;;;;;;;;;2202443;66;2056;-28
2023/07/17 01:26:28;;;;;;;;;;;;;;;;;;2202703;66;1988;-27
2023/07/17 01:28:58;;;;;;;;;;;;;;;;;;2202929;66;2563;-28
2023/07/17 01:31:28;;;;;;;;;;;;;;;;;;2202683;67;2076;-28
2023/07/17 01:33:58;;;;;;;;;;;;;;;;;;2202246;67;2563;-28
2023/07/17 01:36:28;;;;;;;;;;;;;;;;;;2199708;66;2054;-28
2023/07/17 01:38:59;;;;;;;;;;;;;;;;;;2202536;66;2236;-28
2023/07/17 01:41:29;;;;;;;;;;;;;;;;;;2202643;67;2080;-28
2023/07/17 01:43:59;;;;;;;;;;;;;;;;;;2202439;67;2884;-28
2023/07/17 01:46:29;;;;;;;;;;;;;;;;;;2203934;58;2782;-27
2023/07/17 01:48:59;;;;;;;;;;;;;;;;;;2202883;66;2225;-28
2023/07/17 01:51:30;;;;;;;;;;;;;;;;;;2203269;67;2029;-27
2023/07/17 01:54:00;;;;;;;;;;;;;;;;;;2202337;59;2586;-27
2023/07/17 01:56:30;;;;;;;;;;;;;;;;;;2204350;59;2533;-27
2023/07/17 01:59:01;;;;;;;;;;;;;;;;;;2199210;67;2429;-28
2023/07/17 02:01:33;;;;;;;;;;;;;;;;;;2202434;59;2697;-28
2023/07/17 02:04:03;;;;;;;;;;;;;;;;;;2203649;58;2577;-27
2023/07/17 02:06:34;;;;;;;;;;;;;;;;;;2203457;59;2150;-27
2023/07/17 02:09:04;;;;;;;;;;;;;;;;;;2202438;59;2444;-27
2023/07/17 02:11:34;;;;;;;;;;;;;;;;;;2202122;59;2135;-27
2023/07/17 02:14:04;;;;;;;;;;;;;;;;;;2202592;66;2563;-27
2023/07/17 02:16:37;;;;;;;;;;;;;;;;;;2199100;66;1995;-27
2023/07/17 02:19:08;;;;;;;;;;;;;;;;;;2199606;66;2076;-29
2023/07/17 02:21:38;;;;;;;;;;;;;;;;;;2200815;66;2112;-27
2023/07/17 02:24:08;;;;;;;;;;;;;;;;;;2203091;67;1938;-27
2023/07/17 02:29:47;;;;;;;;;;;;;;;;;;2194188;59;2230;-28
2023/07/17 02:32:17;;;;;;;;;;;;;;;;;;2198609;59;2213;-27
2023/07/17 02:34:48;;;;;;;;;;;;;;;;;;2204963;59;2330;-28
2023/07/17 02:37:18;;;;;;;;;;;;;;;;;;2202005;59;2067;-28
2023/07/17 02:39:48;;;;;;;;;;;;;;;;;;2202683;66;1905;-27
2023/07/17 02:42:18;;;;;;;;;;;;;;;;;;2201946;66;2563;-27
2023/07/17 02:44:49;;;;;;;;;;;;;;;;;;2202474;58;2521;-27
2023/07/17 02:47:19;;;;;;;;;;;;;;;;;;2198334;58;2554;-27
2023/07/17 02:49:49;;;;;;;;;;;;;;;;;;2202395;66;2295;-27
2023/07/17 02:52:19;;;;;;;;;;;;;;;;;;2201692;59;2618;-28
2023/07/17 02:54:49;;;;;;;;;;;;;;;;;;2202732;59;2017;-27
2023/07/17 02:57:20;;;;;;;;;;;;;;;;;;2199650;59;2037;-27
2023/07/17 02:59:50;;;;;;;;;;;;;;;;;;2203074;59;2495;-27
2023/07/17 03:02:20;;;;;;;;;;;;;;;;;;2201725;59;2370;-28
2023/07/17 03:04:53;;;;;;;;;;;;;;;;;;2203353;66;2075;-27
2023/07/17 03:07:23;;;;;;;;;;;;;;;;;;2202091;59;1990;-27
2023/07/17 03:09:54;;;;;;;;;;;;;;;;;;2201906;66;1835;-29
2023/07/17 03:12:24;;;;;;;;;;;;;;;;;;2202341;59;2205;-27
2023/07/17 03:14:54;;;;;;;;;;;;;;;;;;2199871;67;2481;-28
2023/07/17 03:17:24;;;;;;;;;;;;;;;;;;2202811;59;2029;-27
2023/07/17 03:19:54;;;;;;;;;;;;;;;;;;2202217;66;1785;-27
2023/07/17 03:22:26;;;;;;;;;;;;;;;;;;2202036;66;2119;-27
2023/07/17 03:24:56;;;;;;;;;;;;;;;;;;2202453;66;2029;-28
2023/07/17 03:27:27;;;;;;;;;;;;;;;;;;2202153;66;2812;-27
2023/07/17 03:29:57;;;;;;;;;;;;;;;;;;2198980;66;2133;-27
2023/07/17 03:32:30;;;;;;;;;;;;;;;;;;2199482;66;2851;-27
2023/07/17 03:35:01;;;;;;;;;;;;;;;;;;2200079;66;2549;-28
2023/07/17 03:37:31;;;;;;;;;;;;;;;;;;2199639;66;2819;-28
2023/07/17 03:40:01;;;;;;;;;;;;;;;;;;2202839;67;2232;-26
2023/07/17 03:42:31;;;;;;;;;;;;;;;;;;2202320;66;2586;-27
2023/07/17 03:45:02;;;;;;;;;;;;;;;;;;2202833;58;2067;-26
2023/07/17 03:47:32;;;;;;;;;;;;;;;;;;2198992;66;2480;-26
2023/07/17 03:50:05;;;;;;;;;;;;;;;;;;2202718;66;2143;-26
2023/07/17 03:52:39;;;;;;;;;;;;;;;;;;2202125;66;2776;-26
2023/07/17 03:55:09;;;;;;;;;;;;;;;;;;2202880;66;2590;-27
2023/07/17 03:57:39;;;;;;;;;;;;;;;;;;2203114;59;2386;-26
2023/07/17 04:00:13;;;;;;;;;;;;;;;;;;2203605;59;2338;-26
2023/07/17 04:02:44;;;;;;;;;;;;;;;;;;2200080;66;2597;-26
2023/07/17 04:05:14;;;;;;;;;;;;;;;;;;2204170;58;1996;-27
2023/07/17 04:07:44;;;;;;;;;;;;;;;;;;2203350;66;2108;-26
2023/07/17 04:10:15;;;;;;;;;;;;;;;;;;2202351;66;2017;-26
2023/07/17 04:12:45;;;;;;;;;;;;;;;;;;2200747;59;2055;-26
2023/07/17 04:15:16;;;;;;;;;;;;;;;;;;2202779;66;2158;-27
2023/07/17 04:17:46;;;;;;;;;;;;;;;;;;2203000;66;1966;-26
2023/07/17 04:20:16;;;;;;;;;;;;;;;;;;2202438;66;2092;-26
2023/07/17 04:22:46;;;;;;;;;;;;;;;;;;2202719;66;2496;-26
2023/07/17 04:25:16;;;;;;;;;;;;;;;;;;2201644;66;2415;-26
2023/07/17 04:27:47;;;;;;;;;;;;;;;;;;2199247;66;2053;-26
2023/07/17 04:30:17;;;;;;;;;;;;;;;;;;2202085;66;2090;-26
2023/07/17 04:32:47;;;;;;;;;;;;;;;;;;2203266;58;2665;-26
2023/07/17 04:35:17;;;;;;;;;;;;;;;;;;2201935;66;2020;-27
2023/07/17 04:37:48;;;;;;;;;;;;;;;;;;2200455;66;2666;-26
2023/07/17 04:40:19;;;;;;;;;;;;;;;;;;2202390;66;2397;-26
2023/07/17 04:42:49;;;;;;;;;;;;;;;;;;2202822;59;2455;-26
2023/07/17 04:45:22;;;;;;;;;;;;;;;;;;2203575;66;2569;-26
2023/07/17 04:47:53;;;;;;;;;;;;;;;;;;2202723;66;2644;-26
2023/07/17 04:50:25;;;;;;;;;;;;;;;;;;2201968;59;2596;-26
2023/07/17 04:52:56;;;;;;;;;;;;;;;;;;2202626;59;2505;-27
2023/07/17 04:55:26;;;;;;;;;;;;;;;;;;2202286;59;2653;-26
2023/07/17 04:57:56;;;;;;;;;;;;;;;;;;2202728;67;2083;-26
2023/07/17 05:00:26;;;;;;;;;;;;;;;;;;2203107;59;2163;-26
2023/07/17 05:02:56;;;;;;;;;;;;;;;;;;2202592;66;3052;-27
2023/07/17 05:05:28;;;;;;;;;;;;;;;;;;2202919;66;2575;-26
2023/07/17 05:07:58;;;;;;;;;;;;;;;;;;2202895;66;2103;-27
2023/07/17 05:10:28;;;;;;;;;;;;;;;;;;2202512;59;2154;-26
2023/07/17 05:12:59;;;;;;;;;;;;;;;;;;2202403;59;2734;-26
2023/07/17 05:15:30;;;;;;;;;;;;;;;;;;2203123;66;2002;-26
2023/07/17 05:18:00;;;;;;;;;;;;;;;;;;2198497;67;2517;-26
2023/07/17 05:20:31;;;;;;;;;;;;;;;;;;2200258;66;2081;-26
2023/07/17 05:23:01;;;;;;;;;;;;;;;;;;2202645;66;2790;-26
2023/07/17 05:25:31;;;;;;;;;;;;;;;;;;2203028;59;2469;-26
2023/07/17 05:28:01;;;;;;;;;;;;;;;;;;2202871;67;2306;-26
2023/07/17 05:30:33;;;;;;;;;;;;;;;;;;2202638;67;2208;-26
2023/07/17 05:33:03;;;;;;;;;;;;;;;;;;2202622;66;2273;-26
2023/07/17 05:35:33;;;;;;;;;;;;;;;;;;2202189;66;1987;-26
2023/07/17 05:38:03;;;;;;;;;;;;;;;;;;2199393;67;1987;-25
2023/07/17 05:40:35;;;;;;;;;;;;;;;;;;2202636;66;2109;-26
2023/07/17 05:43:05;;;;;;;;;;;;;;;;;;2202903;67;2565;-26
2023/07/17 05:45:37;;;;;;;;;;;;;;;;;;2203004;66;2122;-26
2023/07/17 05:48:07;;;;;;;;;;;;;;;;;;2202647;66;2602;-26
2023/07/17 05:50:37;;;;;;;;;;;;;;;;;;2202748;66;2023;-26
2023/07/17 05:53:07;;;;;;;;;;;;;;;;;;2202241;59;2088;-25
2023/07/17 05:55:37;;;;;;;;;;;;;;;;;;2202108;59;1982;-25
2023/07/17 05:58:07;;;;;;;;;;;;;;;;;;2202839;66;2625;-26
2023/07/17 06:00:38;;;;;;;;;;;;;;;;;;2202751;59;2575;-26
2023/07/17 06:03:08;;;;;;;;;;;;;;;;;;2199396;66;2552;-25
2023/07/17 06:05:38;;;;;;;;;;;;;;;;;;2203382;58;2650;-25
2023/07/17 06:08:09;;;;;;;;;;;;;;;;;;2204136;66;2473;-26
2023/07/17 06:10:42;;;;;;;;;;;;;;;;;;2202314;66;1975;-25
2023/07/17 06:13:13;;;;;;;;;;;;;;;;;;2203090;59;2135;-25
2023/07/17 06:15:44;;;;;;;;;;;;;;;;;;2202062;66;2528;-25
2023/07/17 06:18:14;;;;;;;;;;;;;;;;;;2202790;66;2152;-25
2023/07/17 06:20:44;;;;;;;;;;;;;;;;;;2203296;58;2028;-25
2023/07/17 06:23:14;;;;;;;;;;;;;;;;;;2201837;59;3384;-25
2023/07/17 06:25:45;;;;;;;;;;;;;;;;;;2215027;58;2715;-25
2023/07/17 06:28:15;;;;;;;;;;;;;;;;;;2202537;59;2391;-25
2023/07/17 06:30:46;;;;;;;;;;;;;;;;;;2203048;66;1964;-25
2023/07/17 06:33:16;;;;;;;;;;;;;;;;;;2203428;59;2056;-25
2023/07/17 06:35:47;;;;;;;;;;;;;;;;;;2202831;67;2031;-25
2023/07/17 06:38:17;;;;;;;;;;;;;;;;;;2202350;67;2090;-26
2023/07/17 06:40:51;;;;;;;;;;;;;;;;;;2199743;66;2734;-25
2023/07/17 06:43:21;;;;;;;;;;;;;;;;;;2202984;66;2102;-25
2023/07/17 06:45:51;;;;;;;;;;;;;;;;;;2203490;58;1906;-25
2023/07/17 06:48:22;;;;;;;;;;;;;;;;;;2202887;66;2594;-25
2023/07/17 06:50:52;;;;;;;;;;;;;;;;;;2203569;67;2443;-24
2023/07/17 06:53:22;;;;;;;;;;;;;;;;;;2203427;59;2238;-24
2023/07/17 06:56:01;;;;;;;;;;;;;;;;;;2203857;59;2469;-24
2023/07/17 06:58:32;;;;;;;;;;;;;;;;;;2203531;66;2163;-24
2023/07/17 07:01:03;;;;;;;;;;;;;;;;;;2202588;59;2419;-25
2023/07/17 07:03:33;;;;;;;;;;;;;;;;;;2202781;66;2088;-25
2023/07/17 07:06:07;;;;;;;;;;;;;;;;;;2202789;59;2493;-25
2023/07/17 07:08:37;;;;;;;;;;;;;;;;;;2203175;66;2482;-24
2023/07/17 07:11:08;;;;;;;;;;;;;;;;;;2203023;59;2114;-24
2023/07/17 07:13:42;;;;;;;;;;;;;;;;;;2202551;59;2894;-25
2023/07/17 07:16:12;;;;;;;;;;;;;;;;;;2202478;59;2278;-24
2023/07/17 07:18:42;;;;;;;;;;;;;;;;;;2203301;66;2055;-24
2023/07/17 07:21:12;;;;;;;;;;;;;;;;;;2203103;67;2428;-24
2023/07/17 07:23:43;;;;;;;;;;;;;;;;;;2202762;59;2784;-24
2023/07/17 07:26:13;;;;;;;;;;;;;;;;;;2201161;59;2653;-24
2023/07/17 07:28:43;;;;;;;;;;;;;;;;;;2201965;59;2561;-25
2023/07/17 07:31:13;;;;;;;;;;;;;;;;;;2202698;66;1987;-25
2023/07/17 07:33:43;;;;;;;;;;;;;;;;;;2198141;59;4370;-25
2023/07/17 07:36:14;;;;;;;;;;;;;;;;;;2202496;66;3312;-25
2023/07/17 07:38:44;;;;;;;;;;;;;;;;;;2201535;66;2495;-24
2023/07/17 07:41:15;;;;;;;;;;;;;;;;;;2199913;66;2621;-24
2023/07/17 07:43:45;;;;;;;;;;;;;;;;;;2200451;67;2538;-23
2023/07/17 07:46:15;;;;;;;;;;;;;;;;;;2199530;58;2596;-24
2023/07/17 07:48:45;;;;;;;;;;;;;;;;;;2198703;59;2516;-24
2023/07/17 07:51:15;;;;;;;;;;;;;;;;;;2198537;58;2187;-24
2023/07/17 07:53:45;;;;;;;;;;;;;;;;;;2203296;59;2512;-24
2023/07/17 07:56:16;;;;;;;;;;;;;;;;;;2203403;59;2796;-24
2023/07/17 07:58:46;;;;;;;;;;;;;;;;;;2197756;59;2494;-24
2023/07/17 08:01:16;;;;;;;;;;;;;;;;;;2202631;60;2485;-24
2023/07/17 08:03:47;;;;;;;;;;;;;;;;;;2202585;58;2687;-24
2023/07/17 08:06:17;;;;;;;;;;;;;;;;;;2202916;59;2519;-24
2023/07/17 08:08:48;;;;;;;;;;;;;;;;;;2202157;63;2523;-24
2023/07/17 08:11:21;;;;;;;;;;;;;;;;;;2198897;59;2530;-24
2023/07/17 08:13:51;;;;;;;;;;;;;;;;;;2198998;66;2141;-24
2023/07/17 08:16:21;;;;;;;;;;;;;;;;;;2202108;66;2100;-24
2023/07/17 08:18:51;;;;;;;;;;;;;;;;;;2202724;67;2407;-24
2023/07/17 08:21:22;;;;;;;;;;;;;;;;;;2202831;66;2114;-24
2023/07/17 08:23:52;;;;;;;;;;;;;;;;;;2202449;66;2004;-24
2023/07/17 08:26:23;;;;;;;;;;;;;;;;;;2200249;59;2614;-24
2023/07/17 08:28:53;;;;;;;;;;;;;;;;;;2200184;67;2696;-24
2023/07/17 08:31:24;;;;;;;;;;;;;;;;;;2202848;59;2291;-24
2023/07/17 08:33:54;;;;;;;;;;;;;;;;;;2204246;66;2017;-24
2023/07/17 08:36:26;;;;;;;;;;;;;;;;;;2202309;66;3288;-22
2023/07/17 08:38:57;;;;;;;;;;;;;;;;;;2202540;66;2512;-22
2023/07/17 08:41:28;;;;;;;;;;;;;;;;;;2198845;58;2462;-22
2023/07/17 08:43:59;;;;;;;;;;;;;;;;;;2199090;59;2819;-22
2023/07/17 08:46:30;;;;;;;;;;;;;;;;;;2202708;58;2067;-22
2023/07/17 08:49:01;;;;;;;;;;;;;;;;;;2201816;66;2050;-22
2023/07/17 08:51:32;;;;;;;;;;;;;;;;;;2201077;59;2071;-22
2023/07/17 08:54:03;;;;;;;;;;;;;;;;;;2200783;59;2609;-22
2023/07/17 08:56:34;;;;;;;;;;;;;;;;;;2201253;59;2545;-22
2023/07/17 08:59:05;;;;;;;;;;;;;;;;;;2203036;66;1777;-22
2023/07/17 09:01:36;;;;;;;;;;;;;;;;;;2203036;59;1809;-22
2023/07/17 09:04:06;;;;;;;;;;;;;;;;;;2214577;58;1990;-22
2023/07/17 09:06:36;;;;;;;;;;;;;;;;;;2203847;66;1870;-21
2023/07/17 09:09:09;;;;;;;;;;;;;;;;;;2202999;66;2082;-21
2023/07/17 09:11:39;;;;;;;;;;;;;;;;;;2202064;59;2366;-22
2023/07/17 09:14:10;;;;;;;;;;;;;;;;;;2199587;66;2664;-22
2023/07/17 09:16:40;;;;;;;;;;;;;;;;;;2202042;66;2662;-22
2023/07/17 09:19:13;;;;;;;;;;;;;;;;;;2201942;66;2623;-22
2023/07/17 09:21:46;;;;;;;;;;;;;;;;;;2203741;66;2170;-22
2023/07/17 09:24:21;;;;;;;;;;;;;;;;;;2202755;66;1970;-22
2023/07/17 09:26:56;;;;;;;;;;;;;;;;;;2203784;59;1970;-22
2023/07/17 09:29:26;;;;;;;;;;;;;;;;;;2202967;67;1816;-22
2023/07/17 09:31:57;;;;;;;;;;;;;;;;;;2202569;59;2011;-22
2023/07/17 09:34:27;;;;;;;;;;;;;;;;;;2202974;66;2141;-22
2023/07/17 09:36:57;;;;;;;;;;;;;;;;;;2202158;66;3523;-22
2023/07/17 09:39:28;;;;;;;;;;;;;;;;;;2200027;66;3369;-22
2023/07/17 09:41:58;;;;;;;;;;;;;;;;;;2202088;59;2131;-23
2023/07/17 09:44:29;;;;;;;;;;;;;;;;;;2203224;58;2412;-23
2023/07/17 09:47:00;;;;;;;;;;;;;;;;;;2201736;63;2216;-23
2023/07/17 09:49:30;;;;;;;;;;;;;;;;;;2199697;59;2720;-23
2023/07/17 09:52:00;;;;;;;;;;;;;;;;;;2200835;59;2511;-23
2023/07/17 09:54:31;;;;;;;;;;;;;;;;;;2202451;59;2672;-23
2023/07/17 09:57:01;;;;;;;;;;;;;;;;;;2202232;59;2002;-23
2023/07/17 09:59:33;;;;;;;;;;;;;;;;;;2198932;60;2143;-23
2023/07/17 10:02:04;;;;;;;;;;;;;;;;;;2203388;59;2072;-23
2023/07/17 10:04:38;;;;;;;;;;;;;;;;;;2203627;58;2166;-23
2023/07/17 10:07:10;;;;;;;;;;;;;;;;;;2201935;59;1956;-23
2023/07/17 10:09:40;;;;;;;;;;;;;;;;;;2203049;66;2608;-23
2023/07/17 10:12:17;;;;;;;;;;;;;;;;;;2201546;59;2404;-23
2023/07/17 10:14:48;;;;;;;;;;;;;;;;;;2202073;66;2065;-23
2023/07/17 10:17:24;;;;;;;;;;;;;;;;;;2202082;66;2533;-23
2023/07/17 10:19:58;;;;;;;;;;;;;;;;;;2202473;66;2093;-23
2023/07/17 10:22:33;;;;;;;;;;;;;;;;;;2202366;59;2675;-23
2023/07/17 10:25:10;;;;;;;;;;;;;;;;;;2202330;66;2547;-23
2023/07/17 10:27:40;;;;;;;;;;;;;;;;;;2203067;59;2602;-23
2023/07/17 10:30:21;;;;;;;;;;;;;;;;;;2203023;66;1857;-23
2023/07/17 10:33:10;;;;;;;;;;;;;;;;;;2203623;66;2255;-23
2023/07/17 10:35:55;;;;;;;;;;;;;;;;;;2199260;67;2074;-23
2023/07/17 10:38:29;;;;;;;;;;;;;;;;;;2201853;66;3516;-23
2023/07/17 10:41:02;;;;;;;;;;;;;;;;;;2202996;66;2106;-23
2023/07/17 10:43:34;;;;;;;;;;;;;;;;;;2199383;66;2280;-23
2023/07/17 10:46:08;;;;;;;;;;;;;;;;;;2201629;66;3100;-23
2023/07/17 10:48:39;;;;;;;;;;;;;;;;;;2203559;66;2120;-23
2023/07/17 10:51:10;;;;;;;;;;;;;;;;;;2202535;59;1946;-23
2023/07/17 10:53:40;;;;;;;;;;;;;;;;;;2202250;59;2639;-23
2023/07/17 10:56:10;;;;;;;;;;;;;;;;;;2200373;59;2504;-23
2023/07/17 10:58:47;;;;;;;;;;;;;;;;;;2202749;66;2002;-23
2023/07/17 11:01:17;;;;;;;;;;;;;;;;;;2202321;59;2146;-23
2023/07/17 11:03:48;;;;;;;;;;;;;;;;;;2202815;58;2718;-23
2023/07/17 11:06:19;;;;;;;;;;;;;;;;;;2202114;59;2154;-22
2023/07/17 11:08:49;;;;;;;;;;;;;;;;;;2201883;59;2442;-23
2023/07/17 11:11:20;;;;;;;;;;;;;;;;;;2201940;59;2165;-23
2023/07/17 11:13:52;;;;;;;;;;;;;;;;;;2202136;66;2082;-23
2023/07/17 11:16:22;;;;;;;;;;;;;;;;;;2198915;66;3272;-23
2023/07/17 11:18:54;;;;;;;;;;;;;;;;;;2202281;66;2593;-22
2023/07/17 11:21:25;;;;;;;;;;;;;;;;;;2202120;66;2079;-22
2023/07/17 11:23:56;;;;;;;;;;;;;;;;;;2202590;66;2028;-23
2023/07/17 11:26:28;;;;;;;;;;;;;;;;;;2203727;66;2044;-23
2023/07/17 11:28:59;;;;;;;;;;;;;;;;;;2201966;59;3020;-23
2023/07/17 11:31:33;;;;;;;;;;;;;;;;;;2203040;59;2130;-23
2023/07/17 11:34:04;;;;;;;;;;;;;;;;;;2201972;66;2409;-23
2023/07/17 11:36:38;;;;;;;;;;;;;;;;;;2204240;67;2201;-23
2023/07/17 11:39:12;;;;;;;;;;;;;;;;;;2203069;59;3498;-23
2023/07/17 11:41:48;;;;;;;;;;;;;;;;;;2203986;66;2125;-23
2023/07/17 11:44:22;;;;;;;;;;;;;;;;;;2201770;59;2655;-23
2023/07/17 11:46:56;;;;;;;;;;;;;;;;;;2201708;59;2617;-23
2023/07/17 11:49:27;;;;;;;;;;;;;;;;;;2202888;59;2091;-23
2023/07/17 11:51:58;;;;;;;;;;;;;;;;;;2201506;59;2123;-23
2023/07/17 11:54:37;;;;;;;;;;;;;;;;;;2202920;59;2608;-23
2023/07/17 11:57:07;;;;;;;;;;;;;;;;;;2201018;59;2510;-22
2023/07/17 11:59:37;;;;;;;;;;;;;;;;;;2202828;59;2616;-23
2023/07/17 12:02:08;;;;;;;;;;;;;;;;;;2198041;59;2643;-23
2023/07/17 12:04:41;;;;;;;;;;;;;;;;;;2202846;58;2491;-23
2023/07/17 12:07:18;;;;;;;;;;;;;;;;;;2201149;59;2400;-22
2023/07/17 12:09:50;;;;;;;;;;;;;;;;;;2202398;66;2591;-22
2023/07/17 12:12:20;;;;;;;;;;;;;;;;;;2201590;66;2503;-23
2023/07/17 12:14:53;;;;;;;;;;;;;;;;;;2198842;66;2699;-22
2023/07/17 12:17:24;;;;;;;;;;;;;;;;;;2201668;59;2646;-22
2023/07/17 12:19:54;;;;;;;;;;;;;;;;;;2201558;59;2514;-23
2023/07/17 12:22:24;;;;;;;;;;;;;;;;;;2202394;66;1982;-24
2023/07/17 12:24:56;;;;;;;;;;;;;;;;;;2201988;59;2496;-23
2023/07/17 12:27:26;;;;;;;;;;;;;;;;;;2202192;59;2389;-24
2023/07/17 12:29:56;;;;;;;;;;;;;;;;;;2202304;66;2157;-23
2023/07/17 12:32:26;;;;;;;;;;;;;;;;;;2203373;66;1999;-24
2023/07/17 12:34:57;;;;;;;;;;;;;;;;;;2214941;66;2001;-24
2023/07/17 12:37:29;;;;;;;;;;;;;;;;;;2204000;66;1744;-24
2023/07/17 12:39:59;;;;;;;;;;;;;;;;;;2201967;59;3225;-24
2023/07/17 12:42:30;;;;;;;;;;;;;;;;;;2202309;66;3175;-23
2023/07/17 12:45:00;;;;;;;;;;;;;;;;;;2202587;58;2722;-24
2023/07/17 12:47:30;;;;;;;;;;;;;;;;;;2203197;66;2631;-23
2023/07/17 12:50:00;;;;;;;;;;;;;;;;;;2201742;66;2555;-23
2023/07/17 12:52:31;;;;;;;;;;;;;;;;;;2199985;59;2404;-23
2023/07/17 12:55:01;;;;;;;;;;;;;;;;;;2202801;59;2049;-24
2023/07/17 12:57:31;;;;;;;;;;;;;;;;;;2202655;59;2155;-24
2023/07/17 13:00:02;;;;;;;;;;;;;;;;;;2199477;59;2693;-24
2023/07/17 13:02:32;;;;;;;;;;;;;;;;;;2215671;66;2441;-24
2023/07/17 13:05:03;;;;;;;;;;;;;;;;;;2203552;58;2610;-23
2023/07/17 13:07:33;;;;;;;;;;;;;;;;;;2203372;66;2068;-23
2023/07/17 13:10:04;;;;;;;;;;;;;;;;;;2202805;66;2281;-23
2023/07/17 13:12:34;;;;;;;;;;;;;;;;;;2200447;59;2408;-23
2023/07/17 13:15:05;;;;;;;;;;;;;;;;;;2202859;59;2298;-23
2023/07/17 13:17:35;;;;;;;;;;;;;;;;;;2204693;59;2804;-23
2023/07/17 13:20:06;;;;;;;;;;;;;;;;;;2201688;66;2954;-23
2023/07/17 13:22:36;;;;;;;;;;;;;;;;;;2203924;66;2070;-22
2023/07/17 13:25:06;;;;;;;;;;;;;;;;;;2203383;66;2728;-24
2023/07/17 13:27:37;;;;;;;;;;;;;;;;;;2203887;59;2137;-23
2023/07/17 13:30:07;;;;;;;;;;;;;;;;;;2202726;66;2052;-23
2023/07/17 13:32:38;;;;;;;;;;;;;;;;;;2203551;66;2567;-23
2023/07/17 13:35:08;;;;;;;;;;;;;;;;;;2203087;66;2164;-23
2023/07/17 13:37:39;;;;;;;;;;;;;;;;;;2203556;66;2565;-23
2023/07/17 13:40:10;;;;;;;;;;;;;;;;;;2201640;59;3295;-23
2023/07/17 13:42:40;;;;;;;;;;;;;;;;;;2199555;66;3547;-23
2023/07/17 13:45:10;;;;;;;;;;;;;;;;;;2202556;58;2434;-23
2023/07/17 13:47:40;;;;;;;;;;;;;;;;;;2203279;66;2604;-23
2023/07/17 13:50:11;;;;;;;;;;;;;;;;;;2202750;59;2416;-24
2023/07/17 13:52:41;;;;;;;;;;;;;;;;;;2203583;59;1973;-23
2023/07/17 13:55:13;;;;;;;;;;;;;;;;;;2203666;59;2003;-24
2023/07/17 13:57:43;;;;;;;;;;;;;;;;;;2203186;66;1824;-23
2023/07/17 14:00:13;;;;;;;;;;;;;;;;;;2202466;59;2096;-22
2023/07/17 14:02:47;;;;;;;;;;;;;;;;;;2202365;59;2291;-23
2023/07/17 14:05:17;;;;;;;;;;;;;;;;;;2203441;58;2309;-24
2023/07/17 14:07:47;;;;;;;;;;;;;;;;;;2202526;59;2072;-23
2023/07/17 14:10:17;;;;;;;;;;;;;;;;;;2201184;59;2148;-23
2023/07/17 14:12:48;;;;;;;;;;;;;;;;;;2199424;59;1919;-23
2023/07/17 14:15:18;;;;;;;;;;;;;;;;;;2200964;59;2143;-23
2023/07/17 14:17:48;;;;;;;;;;;;;;;;;;2202536;66;2039;-23
2023/07/17 14:20:19;;;;;;;;;;;;;;;;;;2202067;66;2465;-23
2023/07/17 14:22:49;;;;;;;;;;;;;;;;;;2202659;66;2152;-23
2023/07/17 14:25:20;;;;;;;;;;;;;;;;;;2202333;66;1956;-24
2023/07/17 14:27:50;;;;;;;;;;;;;;;;;;2202096;59;1866;-23
2023/07/17 14:30:21;;;;;;;;;;;;;;;;;;2201814;59;2504;-23
2023/07/17 14:32:52;;;;;;;;;;;;;;;;;;2202374;59;2570;-23
2023/07/17 14:35:22;;;;;;;;;;;;;;;;;;2201656;66;1996;-23
2023/07/17 14:37:53;;;;;;;;;;;;;;;;;;2199081;59;2276;-23
2023/07/17 14:40:23;;;;;;;;;;;;;;;;;;2202230;66;2533;-23
2023/07/17 14:42:53;;;;;;;;;;;;;;;;;;2202019;59;3429;-23
2023/07/17 14:45:23;;;;;;;;;;;;;;;;;;2201769;58;2501;-23
2023/07/17 14:47:54;;;;;;;;;;;;;;;;;;2201992;66;2574;-23
2023/07/17 14:50:24;;;;;;;;;;;;;;;;;;2201405;59;1867;-23
2023/07/17 14:52:54;;;;;;;;;;;;;;;;;;2202245;59;2091;-23
2023/07/17 14:55:25;;;;;;;;;;;;;;;;;;2202120;58;2016;-23
2023/07/17 14:57:55;;;;;;;;;;;;;;;;;;2198191;59;2455;-23
2023/07/17 15:00:25;;;;;;;;;;;;;;;;;;2202907;59;2112;-23
2023/07/17 15:02:55;;;;;;;;;;;;;;;;;;2202598;59;2258;-23
2023/07/17 15:05:26;;;;;;;;;;;;;;;;;;2200098;58;2212;-23
2023/07/17 15:07:56;;;;;;;;;;;;;;;;;;2202911;67;1999;-24
2023/07/17 15:10:26;;;;;;;;;;;;;;;;;;2200054;67;2508;-23
2023/07/17 15:12:56;;;;;;;;;;;;;;;;;;2202338;59;2367;-23
2023/07/17 15:15:27;;;;;;;;;;;;;;;;;;2203349;59;2640;-24
2023/07/17 15:17:58;;;;;;;;;;;;;;;;;;2202352;66;1900;-24
2023/07/17 15:20:28;;;;;;;;;;;;;;;;;;2202440;66;2092;-23
2023/07/17 15:22:58;;;;;;;;;;;;;;;;;;2202206;66;3005;-23
2023/07/17 15:25:29;;;;;;;;;;;;;;;;;;2202842;59;2136;-23
2023/07/17 15:27:59;;;;;;;;;;;;;;;;;;2201003;59;2152;-23
2023/07/17 15:30:32;;;;;;;;;;;;;;;;;;2202349;66;1933;-23
2023/07/17 15:33:03;;;;;;;;;;;;;;;;;;2202377;66;2003;-24
2023/07/17 15:35:33;;;;;;;;;;;;;;;;;;2202517;66;2654;-24
2023/07/17 15:38:03;;;;;;;;;;;;;;;;;;2201963;59;2091;-23
2023/07/17 15:40:33;;;;;;;;;;;;;;;;;;2202304;59;2122;-24
2023/07/17 15:43:04;;;;;;;;;;;;;;;;;;2202033;63;2798;-24
2023/07/17 15:45:34;;;;;;;;;;;;;;;;;;2200923;58;3082;-24
2023/07/17 15:48:04;;;;;;;;;;;;;;;;;;2202590;67;2390;-24
2023/07/17 15:50:34;;;;;;;;;;;;;;;;;;2202420;59;2593;-24
2023/07/17 15:53:05;;;;;;;;;;;;;;;;;;2199649;59;2964;-24
2023/07/17 15:55:35;;;;;;;;;;;;;;;;;;2201014;59;2075;-24
2023/07/17 15:58:05;;;;;;;;;;;;;;;;;;2203696;59;1883;-24
2023/07/17 16:00:36;;;;;;;;;;;;;;;;;;2203391;59;2753;-24
2023/07/17 16:03:06;;;;;;;;;;;;;;;;;;2203806;66;2569;-23
2023/07/17 16:05:36;;;;;;;;;;;;;;;;;;2204051;58;2559;-23
2023/07/17 16:08:06;;;;;;;;;;;;;;;;;;2200211;66;2277;-23
2023/07/17 16:10:37;;;;;;;;;;;;;;;;;;2203542;66;2417;-24
2023/07/17 16:13:07;;;;;;;;;;;;;;;;;;2203291;59;2523;-24
2023/07/17 16:15:37;;;;;;;;;;;;;;;;;;2198366;59;2559;-24
2023/07/17 16:18:08;;;;;;;;;;;;;;;;;;2203604;66;2036;-24
2023/07/17 16:20:38;;;;;;;;;;;;;;;;;;2200457;66;2235;-24
2023/07/17 16:23:08;;;;;;;;;;;;;;;;;;2203030;66;2578;-24
2023/07/17 16:25:39;;;;;;;;;;;;;;;;;;2204550;59;1848;-24
2023/07/17 16:28:10;;;;;;;;;;;;;;;;;;2203778;59;2430;-24
2023/07/17 16:30:40;;;;;;;;;;;;;;;;;;2204094;67;2353;-24
2023/07/17 16:33:10;;;;;;;;;;;;;;;;;;2199950;66;2038;-24
2023/07/17 16:35:41;;;;;;;;;;;;;;;;;;2201036;66;2536;-24
2023/07/17 16:38:11;;;;;;;;;;;;;;;;;;2202914;66;2096;-24
2023/07/17 16:40:41;;;;;;;;;;;;;;;;;;2203850;66;2672;-24
2023/07/17 16:43:12;;;;;;;;;;;;;;;;;;2201570;66;3451;-24
2023/07/17 16:45:42;;;;;;;;;;;;;;;;;;2204407;58;3783;-24
2023/07/17 16:48:14;;;;;;;;;;;;;;;;;;2202599;66;2482;-24
2023/07/17 16:50:44;;;;;;;;;;;;;;;;;;2202569;66;2472;-23
2023/07/17 16:53:15;;;;;;;;;;;;;;;;;;2199118;59;2163;-24
2023/07/17 16:55:48;;;;;;;;;;;;;;;;;;2203190;59;2434;-24
2023/07/17 16:58:18;;;;;;;;;;;;;;;;;;2202443;66;2653;-24
2023/07/17 17:00:49;;;;;;;;;;;;;;;;;;2203348;59;2033;-24
2023/07/17 17:03:22;;;;;;;;;;;;;;;;;;2202984;66;2049;-24
2023/07/17 17:05:52;;;;;;;;;;;;;;;;;;2203098;58;2346;-24
2023/07/17 17:08:22;;;;;;;;;;;;;;;;;;2202363;66;2133;-24
2023/07/17 17:10:53;;;;;;;;;;;;;;;;;;2203450;66;2360;-24
2023/07/17 17:13:26;;;;;;;;;;;;;;;;;;2202839;59;2181;-24
2023/07/17 17:15:56;;;;;;;;;;;;;;;;;;2199405;66;2764;-23
2023/07/17 17:18:27;;;;;;;;;;;;;;;;;;2203439;66;2998;-24
2023/07/17 17:20:57;;;;;;;;;;;;;;;;;;2200830;66;2428;-24
2023/07/17 17:23:27;;;;;;;;;;;;;;;;;;2203479;59;2080;-24
2023/07/17 17:25:57;;;;;;;;;;;;;;;;;;2202467;66;2248;-24
2023/07/17 17:28:27;;;;;;;;;;;;;;;;;;2202529;66;2094;-24
2023/07/17 17:30:58;;;;;;;;;;;;;;;;;;2203235;59;1799;-24